Meedville, Mississippi
Current Conditions -  °F | °C
As of 8:53 PM on Thursday 27 Nov 2014 (Local Time) from KMCB Reporting Station
Clear Clear  
Wind Chill: 40°   Ceiling: Unl
Heat Index: 43°   Visibility: 10mi
Dew Point: 30°   Wind: 5mph
Humidity: 60%   Direction: 20°NNE
Pressure: 30.45"   Gusts: NA
Location:  31.4031°N, 90.8369°W
Report Text: KMCB 280253Z AUTO 02004KT 10SM CLR 06/M01 A3045 RMK AO2 SLP312 T00611011 53004
Loading
Personal Weather Stations






























Interactive Weather Map New forecast layout! Learn more

10-Day Weather Forecast

Advertisements
Track Severe Weather on mobile